Time;durP1;ratioP1;P1;durP2;ratioP2;P2;SDS_P1;SDS_P2;PMS_P1;PMS_P2;Temp;Humidity;BMP_temperature;BMP_pressure;BME280_temperature;BME280_humidity;BME280_pressure;Samples;Min_cycle;Max_cycle;Signal;HPM_P1;HPM_P2
2022/01/01 00:01:05;;;;;;;325.55;184.67;;;;;;;4.78;78.71;94376.59;1591920;89;21171;-50
2022/01/01 00:03:32;;;;;;;334.27;188.72;;;;;;;4.73;78.41;94381.17;1590663;90;20996;-53
2022/01/01 00:05:58;;;;;;;321.00;182.10;;;;;;;4.69;78.88;94379.12;1596407;89;21083;-50
2022/01/01 00:08:25;;;;;;;288.48;162.10;;;;;;;4.75;78.88;94385.61;1590710;90;21028;-49
2022/01/01 00:10:54;;;;;;;227.30;125.47;;;;;;;4.81;78.67;94378.48;1590693;90;20999;-49
2022/01/01 00:13:21;;;;;;;263.23;141.75;;;;;;;4.83;79.00;94374.73;1590681;90;21196;-50
2022/01/01 00:15:48;;;;;;;271.73;147.37;;;;;;;4.95;78.95;94378.20;1590667;90;21098;-49
2022/01/01 00:18:16;;;;;;;303.95;173.85;;;;;;;5.02;78.84;94378.08;1590661;90;21128;-49
2022/01/01 00:20:43;;;;;;;272.98;159.95;;;;;;;5.12;78.72;94365.42;1597106;89;21043;-50
2022/01/01 00:23:10;;;;;;;266.42;151.95;;;;;;;5.09;78.10;94356.69;1592020;89;21110;-50
2022/01/01 00:25:37;;;;;;;318.73;178.75;;;;;;;4.97;77.75;94356.74;1590621;90;21152;-49
2022/01/01 00:28:04;;;;;;;280.98;160.35;;;;;;;4.84;77.80;94351.77;1590743;90;20996;-50
2022/01/01 00:30:34;;;;;;;287.70;158.45;;;;;;;4.79;78.35;94351.48;1590571;89;21150;-52
2022/01/01 00:33:01;;;;;;;306.77;169.00;;;;;;;4.77;78.36;94353.87;1590610;89;21096;-50
2022/01/01 00:35:28;;;;;;;322.82;175.82;;;;;;;4.78;78.33;94358.88;1590675;89;21090;-50
2022/01/01 00:38:00;;;;;;;288.90;159.67;;;;;;;4.80;78.74;94357.11;1590671;90;21368;-49
2022/01/01 00:40:27;;;;;;;313.15;172.75;;;;;;;4.89;78.59;94365.48;1591737;89;21007;-50
2022/01/01 00:42:55;;;;;;;255.35;145.60;;;;;;;4.82;78.21;94365.62;1590649;90;21133;-49
2022/01/01 00:45:23;;;;;;;251.20;142.10;;;;;;;4.75;78.63;94365.17;1590929;89;21508;-49
2022/01/01 00:47:50;;;;;;;216.85;121.33;;;;;;;4.70;79.02;94361.58;1590870;90;21054;-49
2022/01/01 00:50:21;;;;;;;209.18;116.57;;;;;;;4.76;79.37;94357.17;1597104;89;21230;-50
2022/01/01 00:52:52;;;;;;;242.00;133.97;;;;;;;4.88;79.31;94358.49;1590023;90;21132;-49
2022/01/01 00:55:19;;;;;;;237.75;132.90;;;;;;;4.94;79.11;94359.56;1590567;88;21087;-50
2022/01/01 00:57:48;;;;;;;244.07;139.72;;;;;;;4.89;78.98;94360.81;1572148;90;20987;-50
2022/01/01 01:00:15;;;;;;;272.55;151.53;;;;;;;4.85;78.89;94354.67;1590957;88;21452;-50
2022/01/01 01:02:43;;;;;;;245.95;139.62;;;;;;;4.80;79.04;94349.69;1599767;89;21204;-48
2022/01/01 01:05:10;;;;;;;229.15;131.65;;;;;;;4.78;79.07;94350.70;1638552;87;21027;-49
2022/01/01 01:07:39;;;;;;;199.00;116.55;;;;;;;4.79;79.22;94350.12;1637711;87;21553;-49
2022/01/01 01:10:07;;;;;;;178.45;105.85;;;;;;;4.82;79.39;94347.92;1637709;87;21265;-50
2022/01/01 01:12:40;;;;;;;182.55;110.80;;;;;;;4.87;79.45;94349.56;1608549;89;21472;-50
2022/01/01 01:15:06;;;;;;;181.28;105.85;;;;;;;4.91;79.34;94339.36;1645709;87;21853;-50
2022/01/01 01:17:32;;;;;;;183.60;105.95;;;;;;;4.92;79.15;94329.98;1601760;89;21014;-49
2022/01/01 01:19:59;;;;;;;224.90;131.57;;;;;;;4.88;79.39;94332.03;1637756;87;21024;-49
2022/01/01 01:22:28;;;;;;;241.60;136.45;;;;;;;4.87;79.22;94321.53;1609268;89;21031;-50
2022/01/01 01:24:54;;;;;;;181.25;107.78;;;;;;;4.84;79.17;94320.44;1642979;86;21015;-49
2022/01/01 01:27:21;;;;;;;150.22;94.13;;;;;;;4.83;78.98;94328.41;1642258;87;21153;-50
2022/01/01 01:29:47;;;;;;;121.70;73.67;;;;;;;4.82;79.09;94309.16;1642173;87;21439;-49
2022/01/01 01:32:14;;;;;;;107.90;65.62;;;;;;;4.85;79.71;94294.72;1642095;86;20987;-50
2022/01/01 01:34:40;;;;;;;222.12;126.02;;;;;;;4.98;79.67;94305.13;1642250;87;21026;-50
2022/01/01 01:37:09;;;;;;;189.03;114.42;;;;;;;4.98;78.90;94301.04;1605411;88;21740;-49
2022/01/01 01:39:36;;;;;;;192.28;113.65;;;;;;;4.94;79.26;94296.88;1590794;90;21959;-49
2022/01/01 01:42:08;;;;;;;158.30;92.88;;;;;;;4.95;79.26;94289.63;1599496;89;21106;-49
2022/01/01 01:44:41;;;;;;;188.47;106.87;;;;;;;5.03;79.37;94292.97;1576307;90;21048;-50
2022/01/01 01:47:13;;;;;;;137.22;80.77;;;;;;;5.10;78.77;94281.31;1591056;89;21108;-50
2022/01/01 01:49:36;;;;;;;130.18;79.77;;;;;;;5.13;78.60;94292.73;1594626;89;21180;-49
2022/01/01 01:52:03;;;;;;;136.25;82.88;;;;;;;5.09;78.44;94288.54;1591032;89;21054;-51
2022/01/01 01:54:30;;;;;;;121.02;73.12;;;;;;;5.11;78.92;94293.00;1599229;89;21027;-51
2022/01/01 01:56:58;;;;;;;149.10;93.05;;;;;;;5.22;78.77;94288.06;1571509;90;21439;-48
2022/01/01 01:59:24;;;;;;;139.07;83.35;;;;;;;5.28;78.58;94284.41;1590572;90;21011;-50
2022/01/01 02:01:52;;;;;;;117.53;69.27;;;;;;;5.27;78.12;94278.79;1590624;89;21047;-51
2022/01/01 02:04:23;;;;;;;121.87;75.12;;;;;;;5.27;78.42;94280.91;1590671;89;20995;-50
2022/01/01 02:06:51;;;;;;;144.95;84.32;;;;;;;5.28;77.90;94281.69;1590863;89;21047;-49
2022/01/01 02:09:18;;;;;;;150.30;87.27;;;;;;;5.24;78.11;94267.38;1590654;89;21618;-50
2022/01/01 02:11:45;;;;;;;150.87;91.92;;;;;;;5.24;78.12;94270.85;1590648;90;21011;-49
2022/01/01 02:14:36;;;;;;;148.30;90.00;;;;;;;5.31;78.29;94270.70;1571569;90;21000;-50
2022/01/01 02:19:28;;;;;;;133.27;79.27;;;;;;;5.41;77.83;94263.47;1594404;89;20987;-50
2022/01/01 02:21:59;;;;;;;154.80;91.80;;;;;;;5.47;78.10;94257.08;1590854;89;21039;-50
2022/01/01 02:24:26;;;;;;;153.00;94.77;;;;;;;5.53;77.54;94252.64;1602266;89;21010;-49
2022/01/01 02:26:55;;;;;;;166.53;100.67;;;;;;;5.45;77.05;94251.88;1596901;89;21452;-49
2022/01/01 02:29:23;;;;;;;164.57;101.67;;;;;;;5.36;76.94;94254.41;1590278;90;21202;-49
2022/01/01 02:31:51;;;;;;;137.62;84.45;;;;;;;5.27;77.18;94244.70;1590498;90;21188;-50
2022/01/01 02:34:19;;;;;;;159.12;97.47;;;;;;;5.22;77.69;94248.53;1598120;89;21070;-49
2022/01/01 02:36:49;;;;;;;156.57;98.60;;;;;;;5.17;77.55;94234.80;1590772;89;21073;-49
2022/01/01 02:39:19;;;;;;;143.20;87.45;;;;;;;5.14;77.70;94234.90;1600950;89;21035;-49
2022/01/01 02:41:48;;;;;;;121.35;72.72;;;;;;;5.12;77.67;94235.31;1638249;87;21157;-49
2022/01/01 02:44:15;;;;;;;100.62;58.33;;;;;;;5.09;77.70;94232.08;1603345;89;20982;-49
2022/01/01 02:46:42;;;;;;;55.80;37.63;;;;;;;5.11;77.85;94234.39;1622440;87;21035;-50
2022/01/01 02:49:09;;;;;;;140.40;85.92;;;;;;;5.13;78.35;94238.82;1642312;87;20998;-49
2022/01/01 02:51:36;;;;;;;155.60;97.92;;;;;;;5.23;78.42;94242.66;1642519;87;21000;-50
2022/01/01 02:54:02;;;;;;;121.92;77.65;;;;;;;5.25;77.97;94234.21;1642286;87;21146;-48
2022/01/01 02:56:29;;;;;;;119.47;75.22;;;;;;;5.27;77.69;94238.64;1604746;89;21014;-49
2022/01/01 02:58:57;;;;;;;110.83;69.77;;;;;;;5.17;77.62;94234.80;1636869;87;20979;-49
2022/01/01 03:01:27;;;;;;;88.22;54.98;;;;;;;5.12;78.00;94232.59;1619309;87;21041;-49
2022/01/01 03:03:56;;;;;;;85.53;52.75;;;;;;;5.14;78.04;94227.47;1607089;89;21514;-50
2022/01/01 03:06:28;;;;;;;103.55;61.70;;;;;;;5.22;78.21;94229.44;1598685;89;21451;-49
2022/01/01 03:08:56;;;;;;;80.90;50.65;;;;;;;5.31;78.45;94227.08;1642626;87;20975;-49
2022/01/01 03:11:25;;;;;;;78.78;45.08;;;;;;;5.42;78.10;94222.73;1642210;87;21000;-50
2022/01/01 03:13:53;;;;;;;107.75;62.15;;;;;;;5.42;77.93;94225.45;1602216;89;20968;-49
2022/01/01 03:16:20;;;;;;;104.97;63.95;;;;;;;5.42;77.95;94220.75;1637641;87;21511;-49
2022/01/01 03:18:47;;;;;;;70.50;42.60;;;;;;;5.41;77.92;94217.11;1619136;87;21152;-50
2022/01/01 03:21:13;;;;;;;55.52;33.30;;;;;;;5.39;77.92;94219.50;1602307;89;21083;-48
2022/01/01 03:23:41;;;;;;;53.68;31.85;;;;;;;5.37;77.86;94215.03;1605030;89;21086;-49
2022/01/01 03:26:07;;;;;;;51.25;30.08;;;;;;;5.32;78.16;94219.64;1637813;87;20987;-50
2022/01/01 03:28:35;;;;;;;33.40;22.58;;;;;;;5.24;78.17;94221.02;1607276;89;21031;-49
2022/01/01 03:31:06;;;;;;;36.40;23.32;;;;;;;5.23;78.46;94230.39;1637502;87;20964;-49
2022/01/01 03:33:34;;;;;;;37.83;22.35;;;;;;;5.23;78.92;94224.16;1637702;87;21016;-50
2022/01/01 03:36:00;;;;;;;64.42;36.75;;;;;;;5.29;79.16;94234.14;1637713;87;21015;-52
2022/01/01 03:38:29;;;;;;;50.43;31.60;;;;;;;5.32;78.74;94236.01;1607543;89;20983;-49
2022/01/01 03:40:57;;;;;;;66.92;40.67;;;;;;;5.36;78.83;94229.86;1642826;87;20968;-48
2022/01/01 03:43:26;;;;;;;67.15;39.85;;;;;;;5.42;78.64;94229.55;1625259;87;21135;-50
2022/01/01 03:45:53;;;;;;;55.98;34.10;;;;;;;5.45;78.37;94225.34;1642394;87;21019;-50
2022/01/01 03:48:19;;;;;;;39.13;25.32;;;;;;;5.39;78.17;94229.04;1642257;86;21046;-51
2022/01/01 03:50:46;;;;;;;31.85;22.32;;;;;;;5.35;78.37;94239.24;1642824;86;20979;-49
2022/01/01 03:53:13;;;;;;;23.40;16.45;;;;;;;5.28;78.16;94244.88;1647412;87;20987;-48
2022/01/01 03:55:41;;;;;;;20.40;15.10;;;;;;;5.27;78.83;94243.34;1605485;88;21466;-49
2022/01/01 03:58:08;;;;;;;23.18;16.30;;;;;;;5.36;79.09;94239.41;1591945;89;21085;-49
2022/01/01 04:00:36;;;;;;;50.92;31.52;;;;;;;5.45;78.94;94242.33;1590582;89;21025;-49
2022/01/01 04:03:09;;;;;;;83.75;48.83;;;;;;;5.48;79.08;94240.11;1590516;89;20999;-49
2022/01/01 04:05:37;;;;;;;;;;;;;;;5.55;79.00;94243.43;1593239;89;21027;-50
2022/01/01 04:08:04;;;;;;;76.20;46.65;;;;;;;5.61;78.35;94240.34;1590864;88;21211;-49
2022/01/01 04:10:32;;;;;;;72.30;43.98;;;;;;;5.48;77.93;94235.42;1590908;90;21027;-48
2022/01/01 04:13:00;;;;;;;125.60;71.37;;;;;;;5.44;78.37;94243.52;1590893;89;21499;-52
2022/01/01 04:15:28;;;;;;;85.28;52.38;;;;;;;5.46;77.95;94237.04;1590822;89;21062;-48
2022/01/01 04:18:00;;;;;;;32.03;21.33;;;;;;;5.40;77.91;94228.59;1590769;90;21040;-49
2022/01/01 04:20:26;;;;;;;37.23;26.30;;;;;;;5.34;77.83;94248.61;1592237;89;21159;-49
2022/01/01 04:22:54;;;;;;;46.20;29.12;;;;;;;5.33;78.62;94253.91;1590777;90;20979;-48
2022/01/01 04:25:22;;;;;;;54.25;33.65;;;;;;;5.28;78.32;94247.59;1590915;90;21120;-49
2022/01/01 04:27:49;;;;;;;35.80;24.15;;;;;;;5.15;78.46;94252.80;1590665;89;21075;-49
2022/01/01 04:30:19;;;;;;;32.88;21.95;;;;;;;5.12;78.93;94253.03;1590886;90;21491;-49
2022/01/01 04:32:46;;;;;;;60.30;37.67;;;;;;;5.15;79.45;94254.91;1590808;89;21235;-49
2022/01/01 04:35:13;;;;;;;101.53;60.43;;;;;;;5.22;79.22;94258.07;1577433;90;20987;-50
2022/01/01 04:37:40;;;;;;;112.25;62.67;;;;;;;5.12;78.77;94261.21;1590808;89;21058;-48
2022/01/01 04:40:09;;;;;;;123.58;73.57;;;;;;;5.00;78.70;94253.69;1612341;88;21031;-50
2022/01/01 04:42:36;;;;;;;104.30;58.83;;;;;;;4.95;78.96;94258.28;1590945;89;21051;-49
2022/01/01 04:45:04;;;;;;;112.17;62.23;;;;;;;4.91;78.83;94265.77;1591107;90;21137;-48
2022/01/01 04:47:32;;;;;;;108.07;65.25;;;;;;;4.84;79.19;94268.66;1590648;90;21046;-49
2022/01/01 04:49:58;;;;;;;102.12;63.70;;;;;;;4.86;79.19;94270.95;1600999;88;21137;-49
2022/01/01 04:52:25;;;;;;;101.12;60.10;;;;;;;4.84;79.58;94263.22;1599467;89;21015;-50
2022/01/01 04:54:52;;;;;;;93.25;57.35;;;;;;;4.91;80.14;94276.67;1590941;89;21563;-49
2022/01/01 04:57:18;;;;;;;79.47;48.42;;;;;;;4.98;79.84;94277.87;1592202;89;21146;-48
2022/01/01 04:59:45;;;;;;;55.55;35.78;;;;;;;4.98;79.82;94280.59;1571779;90;21495;-48
2022/01/01 05:02:11;;;;;;;45.40;28.15;;;;;;;5.01;79.86;94279.75;1598786;89;21031;-49
2022/01/01 05:04:38;;;;;;;44.55;29.02;;;;;;;5.09;79.81;94272.97;1592072;89;21081;-49
2022/01/01 05:07:07;;;;;;;37.90;25.12;;;;;;;5.17;79.83;94278.42;1590709;89;21003;-49
2022/01/01 05:09:37;;;;;;;39.20;25.25;;;;;;;5.25;79.62;94287.99;1590919;90;21825;-49
2022/01/01 05:12:06;;;;;;;35.10;22.50;;;;;;;5.32;79.58;94290.55;1590360;90;21009;-49
2022/01/01 05:14:34;;;;;;;26.60;18.57;;;;;;;5.37;79.30;94285.95;1591014;89;21051;-49
2022/01/01 05:17:02;;;;;;;29.23;19.05;;;;;;;5.36;78.97;94283.83;1590732;90;21047;-48
2022/01/01 05:19:28;;;;;;;21.10;15.03;;;;;;;5.34;79.13;94290.30;1611462;88;21097;-50
2022/01/01 05:21:56;;;;;;;25.17;17.77;;;;;;;5.36;79.09;94291.23;1590937;89;21196;-50
2022/01/01 05:24:23;;;;;;;57.73;34.78;;;;;;;5.31;79.05;94293.11;1590746;90;21016;-50
2022/01/01 05:26:50;;;;;;;46.58;29.25;;;;;;;5.29;79.41;94288.67;1571412;90;21575;-48
2022/01/01 05:29:20;;;;;;;41.02;26.73;;;;;;;5.31;79.69;94293.89;1590678;89;21031;-49
2022/01/01 05:31:47;;;;;;;52.15;31.57;;;;;;;5.34;79.43;94305.89;1607447;89;21038;-49
2022/01/01 05:34:15;;;;;;;35.70;22.50;;;;;;;5.30;79.42;94301.12;1571851;90;21478;-48
2022/01/01 05:36:43;;;;;;;37.33;22.32;;;;;;;5.27;79.39;94299.24;1590769;90;21455;-49
2022/01/01 05:39:18;;;;;;;34.48;22.70;;;;;;;5.20;79.53;94308.95;1592365;89;21542;-49
2022/01/01 05:41:44;;;;;;;35.35;20.30;;;;;;;5.22;80.10;94305.20;1590824;90;20991;-49
2022/01/01 05:44:10;;;;;;;30.60;19.80;;;;;;;5.31;80.35;94317.06;1591017;90;21039;-49
2022/01/01 05:46:38;;;;;;;44.98;26.45;;;;;;;5.36;79.97;94321.23;1590773;90;21157;-49
2022/01/01 05:49:05;;;;;;;45.78;26.62;;;;;;;5.39;79.87;94318.42;1590631;90;21015;-49
2022/01/01 05:51:36;;;;;;;40.12;26.48;;;;;;;5.43;79.67;94330.63;1571891;90;21015;-49
2022/01/01 05:54:03;;;;;;;47.67;32.05;;;;;;;5.41;79.69;94322.11;1590931;89;21527;-49
2022/01/01 05:56:31;;;;;;;46.30;29.80;;;;;;;5.42;79.96;94322.28;1590750;88;21059;-49
2022/01/01 05:58:58;;;;;;;36.95;27.20;;;;;;;5.48;79.55;94328.76;1590691;90;21091;-50
2022/01/01 06:01:27;;;;;;;36.65;26.73;;;;;;;5.46;79.44;94322.34;1598927;89;21003;-49
2022/01/01 06:03:54;;;;;;;38.28;26.40;;;;;;;5.49;79.66;94327.56;1590788;89;21120;-52
2022/01/01 06:06:20;;;;;;;37.70;25.00;;;;;;;5.51;79.75;94329.27;1590734;90;21035;-48
2022/01/01 06:08:47;;;;;;;36.00;25.12;;;;;;;5.55;79.65;94334.82;1590976;90;21010;-49
2022/01/01 06:11:13;;;;;;;40.35;25.65;;;;;;;5.51;79.27;94336.87;1596706;89;21770;-48
2022/01/01 06:13:42;;;;;;;28.50;20.32;;;;;;;5.50;79.36;94340.01;1590613;89;21100;-49
2022/01/01 06:16:09;;;;;;;33.55;24.20;;;;;;;5.49;79.23;94337.11;1590644;89;21126;-49
2022/01/01 06:18:35;;;;;;;32.00;22.17;;;;;;;5.50;79.55;94345.47;1590779;90;21003;-49
2022/01/01 06:21:04;;;;;;;33.18;24.05;;;;;;;5.54;79.86;94349.66;1590865;90;21066;-49
2022/01/01 06:23:33;;;;;;;41.80;27.95;;;;;;;5.58;79.50;94347.61;1591056;90;21151;-50
2022/01/01 06:25:59;;;;;;;34.95;24.05;;;;;;;5.59;79.67;94344.30;1599454;89;21569;-49
2022/01/01 06:28:26;;;;;;;32.25;20.43;;;;;;;5.62;79.99;94348.28;1590750;90;20995;-56
2022/01/01 06:30:52;;;;;;;36.33;24.23;;;;;;;5.66;79.89;94353.67;1590860;89;21555;-49
2022/01/01 06:33:22;;;;;;;33.60;22.30;;;;;;;5.58;79.92;94351.70;1598777;89;21603;-50
2022/01/01 06:35:51;;;;;;;27.37;21.45;;;;;;;5.58;80.09;94353.67;1571563;90;21173;-49
2022/01/01 06:38:22;;;;;;;73.45;46.23;;;;;;;5.66;80.56;94357.77;1592931;89;21106;-53
2022/01/01 06:40:49;;;;;;;54.10;36.28;;;;;;;5.70;80.27;94369.36;1590792;90;21085;-48
2022/01/01 06:43:16;;;;;;;51.70;37.55;;;;;;;5.74;80.21;94363.22;1590739;90;20998;-50
2022/01/01 06:45:45;;;;;;;46.37;34.00;;;;;;;5.79;79.92;94372.31;1601526;89;21010;-50
2022/01/01 06:48:13;;;;;;;49.73;33.15;;;;;;;5.83;79.90;94379.81;1639130;87;21170;-49
2022/01/01 06:50:40;;;;;;;40.50;29.87;;;;;;;5.94;79.91;94383.08;1609968;89;21577;-50
2022/01/01 06:53:06;;;;;;;32.28;23.75;;;;;;;6.02;79.41;94379.75;1643086;87;20972;-49
2022/01/01 06:55:33;;;;;;;30.08;22.70;;;;;;;6.06;78.88;94389.20;1625381;87;21003;-49
2022/01/01 06:58:00;;;;;;;30.70;21.42;;;;;;;5.99;78.66;94395.59;1625334;87;21137;-50
2022/01/01 07:00:27;;;;;;;26.15;20.43;;;;;;;5.92;78.99;94394.98;1605200;87;21144;-49
2022/01/01 07:02:55;;;;;;;24.70;18.52;;;;;;;5.93;79.16;94395.95;1641333;87;20976;-49
2022/01/01 07:05:22;;;;;;;22.27;17.40;;;;;;;5.97;79.11;94397.23;1642366;87;21026;-50
2022/01/01 07:07:49;;;;;;;19.02;14.75;;;;;;;6.06;78.85;94395.45;1625361;87;21059;-49
2022/01/01 07:10:17;;;;;;;20.92;16.75;;;;;;;6.13;78.60;94395.88;1642447;87;21463;-49
2022/01/01 07:12:44;;;;;;;29.20;21.60;;;;;;;6.14;78.07;94398.77;1625747;87;21920;-50
2022/01/01 07:15:17;;;;;;;34.80;25.40;;;;;;;6.12;78.46;94398.44;1600072;89;21035;-49
2022/01/01 07:17:44;;;;;;;37.00;30.17;;;;;;;6.19;78.80;94412.66;1643598;87;21039;-50
2022/01/01 07:20:11;;;;;;;20.95;16.25;;;;;;;6.21;78.69;94413.03;1642263;87;21099;-52
2022/01/01 07:22:41;;;;;;;21.62;17.77;;;;;;;6.18;78.71;94400.82;1603472;89;21364;-50
2022/01/01 07:25:11;;;;;;;39.35;27.22;;;;;;;6.20;79.16;94403.89;1642298;87;23036;-50
2022/01/01 07:27:38;;;;;;;70.72;45.65;;;;;;;6.26;78.76;94402.95;1641897;87;20980;-50
2022/01/01 07:30:06;;;;;;;69.75;45.25;;;;;;;6.17;78.27;94400.65;1642313;87;21023;-50
2022/01/01 07:32:33;;;;;;;68.35;44.42;;;;;;;6.11;78.50;94404.48;1642814;87;21019;-49
2022/01/01 07:34:59;;;;;;;79.67;50.78;;;;;;;6.14;78.50;94409.70;1604121;87;21062;-50
2022/01/01 07:37:28;;;;;;;78.95;50.55;;;;;;;6.13;78.77;94409.53;1605701;89;21101;-54
2022/01/01 07:39:59;;;;;;;65.92;41.85;;;;;;;6.19;78.49;94410.55;1624922;87;20967;-49
2022/01/01 07:42:28;;;;;;;45.20;32.67;;;;;;;6.14;78.08;94400.89;1607965;89;20989;-50
2022/01/01 07:44:55;;;;;;;71.20;44.55;;;;;;;6.14;78.54;94402.88;1637370;87;21003;-50
2022/01/01 07:47:21;;;;;;;43.25;29.95;;;;;;;6.26;78.88;94401.59;1610854;89;21069;-49
2022/01/01 07:49:48;;;;;;;48.90;31.93;;;;;;;6.38;78.71;94398.75;1642844;87;21148;-50
2022/01/01 07:52:15;;;;;;;44.65;32.83;;;;;;;6.44;78.77;94404.64;1625674;87;21020;-49
2022/01/01 07:54:45;;;;;;;72.75;48.33;;;;;;;6.53;78.77;94401.30;1642414;87;21015;-50
2022/01/01 07:57:11;;;;;;;65.40;42.33;;;;;;;6.64;78.73;94403.15;1642278;86;21035;-50
2022/01/01 07:59:38;;;;;;;56.77;38.95;;;;;;;6.76;78.19;94400.50;1642355;86;20979;-51
2022/01/01 08:02:05;;;;;;;49.23;35.20;;;;;;;6.85;77.82;94401.25;1642432;87;21344;-50
2022/01/01 08:04:32;;;;;;;38.48;25.25;;;;;;;6.97;77.90;94397.19;1607738;89;21076;-50
2022/01/01 08:07:01;;;;;;;41.48;27.75;;;;;;;7.07;77.34;94398.84;1643015;87;21550;-50
2022/01/01 08:09:29;;;;;;;68.07;47.83;;;;;;;7.12;77.28;94406.55;1625960;87;21058;-51
2022/01/01 08:11:56;;;;;;;78.87;51.50;;;;;;;7.04;76.49;94396.98;1600970;89;21400;-49
2022/01/01 08:14:23;;;;;;;54.53;38.20;;;;;;;6.95;76.61;94398.81;1642574;87;21100;-50
2022/01/01 08:17:00;;;;;;;60.28;44.18;;;;;;;6.98;76.69;94414.34;1642304;87;21078;-50
2022/01/01 08:19:29;;;;;;;51.77;36.55;;;;;;;6.88;76.69;94407.21;1605120;89;21073;-50
2022/01/01 08:21:57;;;;;;;40.48;30.05;;;;;;;6.88;77.21;94407.97;1637285;87;20991;-49
2022/01/01 08:24:24;;;;;;;33.48;25.25;;;;;;;7.02;77.10;94411.69;1605166;89;21030;-49
2022/01/01 08:26:51;;;;;;;55.15;40.40;;;;;;;7.19;77.12;94410.44;1644217;87;21083;-49
2022/01/01 08:29:17;;;;;;;52.65;41.08;;;;;;;7.32;76.72;94418.84;1604590;89;20995;-49
2022/01/01 08:31:46;;;;;;;59.33;43.68;;;;;;;7.42;76.40;94417.78;1643467;87;21051;-49
2022/01/01 08:34:12;;;;;;;44.03;33.08;;;;;;;7.51;76.13;94413.80;1642406;87;21034;-50
2022/01/01 08:36:39;;;;;;;39.27;28.27;;;;;;;7.59;75.88;94414.36;1642303;87;21609;-50
2022/01/01 08:39:10;;;;;;;33.23;25.95;;;;;;;7.64;75.59;94422.02;1603835;89;21163;-49
2022/01/01 08:41:38;;;;;;;37.03;25.35;;;;;;;7.69;75.29;94424.99;1642468;87;20968;-49
2022/01/01 08:44:06;;;;;;;42.08;28.77;;;;;;;7.75;75.15;94428.74;1608924;89;20990;-49
2022/01/01 08:46:35;;;;;;;49.23;34.75;;;;;;;7.88;74.95;94425.39;1642440;87;21783;-49
2022/01/01 08:49:05;;;;;;;53.68;39.80;;;;;;;7.98;75.08;94427.05;1624896;87;21047;-49
2022/01/01 08:51:37;;;;;;;46.60;33.30;;;;;;;8.10;75.07;94429.63;1642765;87;22548;-49
2022/01/01 08:54:05;;;;;;;69.67;49.70;;;;;;;8.23;75.07;94434.54;1642488;87;21471;-50
2022/01/01 08:56:32;;;;;;;56.60;43.33;;;;;;;8.35;74.63;94434.53;1607780;88;21046;-48
2022/01/01 08:58:59;;;;;;;64.55;46.20;;;;;;;8.32;74.49;94435.41;1642935;87;21023;-49
2022/01/01 09:01:29;;;;;;;69.62;50.35;;;;;;;8.27;74.05;94435.94;1604946;89;21473;-50
2022/01/01 09:03:55;;;;;;;57.00;42.17;;;;;;;8.17;74.34;94438.40;1621156;87;21181;-49
2022/01/01 09:06:22;;;;;;;56.80;44.40;;;;;;;8.14;74.76;94434.39;1607732;89;21007;-49
2022/01/01 09:08:50;;;;;;;57.48;44.15;;;;;;;8.11;74.84;94424.31;1607966;89;21006;-49
2022/01/01 09:11:18;;;;;;;57.85;40.30;;;;;;;8.16;74.73;94426.49;1645217;87;21606;-49
2022/01/01 09:13:45;;;;;;;54.30;38.60;;;;;;;8.21;74.74;94421.27;1625568;87;21508;-49
2022/01/01 09:16:15;;;;;;;64.95;46.10;;;;;;;8.27;74.56;94426.97;1600823;89;21906;-49
2022/01/01 09:18:45;;;;;;;82.10;52.05;;;;;;;8.30;74.27;94433.72;1642524;87;20991;-50
2022/01/01 09:21:14;;;;;;;122.78;68.97;;;;;;;8.32;74.35;94433.26;1603901;88;21018;-48
2022/01/01 09:23:42;;;;;;;123.72;67.50;;;;;;;8.35;74.29;94437.27;1643001;87;21079;-49
2022/01/01 09:26:08;;;;;;;112.40;64.07;;;;;;;8.37;74.17;94440.33;1587098;89;21384;-50
2022/01/01 09:28:35;;;;;;;106.03;66.25;;;;;;;8.37;74.29;94426.62;1637657;87;21459;-50
2022/01/01 09:31:03;;;;;;;113.17;68.42;;;;;;;8.42;74.25;94435.66;1619551;87;21519;-51
2022/01/01 09:33:31;;;;;;;115.52;72.80;;;;;;;8.48;74.55;94446.84;1604809;89;21023;-49
2022/01/01 09:36:03;;;;;;;115.00;71.45;;;;;;;8.55;74.50;94441.12;1590880;90;21504;-50
2022/01/01 09:38:31;;;;;;;108.50;67.78;;;;;;;8.70;74.17;94447.09;1635870;87;20955;-49
2022/01/01 09:40:59;;;;;;;106.05;65.00;;;;;;;8.86;73.73;94442.05;1619588;87;21225;-50
2022/01/01 09:43:27;;;;;;;100.02;62.43;;;;;;;8.96;73.43;94440.31;1637810;87;21036;-48
2022/01/01 09:45:58;;;;;;;95.35;62.98;;;;;;;9.03;73.05;94441.46;1602909;89;21511;-49
2022/01/01 09:48:25;;;;;;;98.00;65.03;;;;;;;9.10;73.05;94439.84;1637122;87;21539;-50
2022/01/01 09:50:56;;;;;;;100.27;68.87;;;;;;;9.21;73.19;94430.02;1602436;89;21095;-49
2022/01/01 09:53:24;;;;;;;106.47;70.20;;;;;;;9.32;72.91;94424.15;1636863;87;21808;-49
2022/01/01 09:55:55;;;;;;;75.83;50.38;;;;;;;9.45;72.77;94430.35;1638051;87;21015;-49
2022/01/01 09:58:28;;;;;;;79.30;54.48;;;;;;;9.45;72.24;94442.08;1601460;87;21034;-50
2022/01/01 10:00:56;;;;;;;;;;;;;;;9.38;72.15;94437.45;1644963;87;20979;-50
2022/01/01 10:03:29;;;;;;;75.25;54.65;;;;;;;9.39;72.56;94430.16;1642265;87;20217;-52
2022/01/01 10:06:01;;;;;;;66.15;49.30;;;;;;;9.47;72.50;94429.30;1644127;86;21193;-51
2022/01/01 10:08:27;;;;;;;72.22;53.20;;;;;;;9.55;72.06;94427.22;1642258;87;20959;-50
2022/01/01 10:10:56;;;;;;;74.95;54.77;;;;;;;9.52;71.96;94425.97;1642180;87;20979;-50
2022/01/01 10:13:29;;;;;;;99.47;72.62;;;;;;;9.49;72.27;94421.37;1607430;89;21087;-51
2022/01/01 10:15:58;;;;;;;93.33;66.92;;;;;;;9.43;72.29;94423.17;1640031;86;21026;-49
2022/01/01 10:18:30;;;;;;;71.17;51.63;;;;;;;9.42;72.44;94425.14;1607329;88;21498;-50
2022/01/01 10:21:04;;;;;;;71.77;52.60;;;;;;;9.45;72.47;94422.86;1624642;87;20987;-50
2022/01/01 10:23:34;;;;;;;88.95;62.93;;;;;;;9.45;72.12;94424.86;1642232;87;21067;-51
2022/01/01 10:29:15;;;;;;;120.42;84.37;;;;;;;9.33;71.59;94425.67;1590798;90;20996;-50
2022/01/01 10:31:58;;;;;;;132.10;90.05;;;;;;;9.26;72.04;94426.70;1571526;90;21137;-49
2022/01/01 10:34:33;;;;;;;140.88;94.40;;;;;;;9.30;72.35;94424.61;1587167;89;21470;-50
2022/01/01 10:37:04;;;;;;;140.32;93.67;;;;;;;9.31;72.40;94421.24;1590667;90;21100;-50
2022/01/01 10:39:30;;;;;;;132.93;82.80;;;;;;;9.34;72.71;94417.01;1591251;89;21059;-49
2022/01/01 10:42:03;;;;;;;130.55;80.42;;;;;;;9.46;72.65;94422.27;1590956;90;21000;-48
2022/01/01 10:44:39;;;;;;;108.17;68.90;;;;;;;9.49;72.40;94422.75;1590385;90;21223;-49
2022/01/01 10:47:25;;;;;;;155.67;109.80;;;;;;;9.55;72.48;94434.67;1590945;89;21047;-51
2022/01/01 10:50:03;;;;;;;173.87;116.40;;;;;;;9.53;72.28;94422.78;1590520;89;21043;-50
2022/01/01 10:52:30;;;;;;;177.05;119.87;;;;;;;9.46;72.51;94425.02;1591039;89;21001;-49
2022/01/01 10:55:08;;;;;;;143.47;105.32;;;;;;;9.40;73.02;94433.05;1593879;88;21007;-49
2022/01/01 10:57:42;;;;;;;113.72;79.42;;;;;;;9.38;72.83;94431.96;1590917;90;21875;-50
2022/01/01 11:00:24;;;;;;;105.32;74.87;;;;;;;9.36;72.88;94433.02;1590010;89;21134;-49
2022/01/01 11:02:56;;;;;;;94.35;65.10;;;;;;;9.36;72.91;94417.92;1591017;89;21035;-50
2022/01/01 11:05:31;;;;;;;82.73;62.40;;;;;;;9.39;72.71;94415.65;1596606;89;21095;-50
2022/01/01 11:07:57;;;;;;;85.50;57.25;;;;;;;9.36;72.44;94415.95;1643215;86;21058;-50
2022/01/01 11:10:27;;;;;;;93.72;60.85;;;;;;;9.36;72.33;94413.80;1637868;87;21996;-50
2022/01/01 11:12:56;;;;;;;83.07;53.20;;;;;;;9.31;72.28;94422.62;1605800;89;20966;-50
2022/01/01 11:15:24;;;;;;;89.20;52.93;;;;;;;9.34;72.86;94421.72;1643237;87;21004;-50
2022/01/01 11:17:52;;;;;;;103.92;71.72;;;;;;;9.34;72.60;94412.89;1642546;87;21042;-49
2022/01/01 11:20:21;;;;;;;89.20;60.20;;;;;;;9.30;73.03;94414.22;1641769;86;21701;-49
2022/01/01 11:22:48;;;;;;;123.92;88.85;;;;;;;9.30;73.23;94419.72;1621745;88;21184;-49
2022/01/01 11:25:18;;;;;;;131.07;90.15;;;;;;;9.22;73.31;94418.45;1621971;87;21018;-49
2022/01/01 11:27:48;;;;;;;106.12;76.70;;;;;;;9.10;73.71;94411.77;1622222;88;21003;-49
2022/01/01 11:30:16;;;;;;;123.13;80.32;;;;;;;9.01;74.12;94416.42;1622313;88;21482;-49
2022/01/01 11:32:52;;;;;;;117.42;81.15;;;;;;;8.90;74.29;94414.05;1622245;88;20990;-51